Fure West — OZ2100 — position and weather

sailwx.info

Track history (hours):
 
Tides and Currents Weather Stations Pressure Air Temp Water Temp Dewpoint Dewpoint Depression Visibility Wind Speed Wind Dir Waves Ship Positions

Fure West

Last reported at 2016-May-24 09:33 UTC. Time now 2016-May-24 09:54 UTC.
Position N 57°34' E 011°40'.

Length 144 m; draft 6.6 m.

MMSI: 231775000.

Date/timePositionNaut miles runAvg speedWind from/ knotsBaromVisibWave heightAir tempDewpointWater temp
2016-May-24 09:33N 57°34' E 011°40'1 1.3
2016-May-24 08:33N 57°33' E 011°38'1313.0
2016-May-24 07:33N 57°20' E 011°45'1313.4
2016-May-24 06:33N 57°08' E 011°56'1413.7
2016-May-24 05:33N 56°55' E 012°03'1413.7
2016-May-24 04:33N 56°42' E 012°10'4 4.1
2016-May-24 03:33N 56°45' E 012°04'5 5.3
2016-May-24 02:33N 56°48' E 012°11'1615.7
2016-May-24 01:33N 56°34' E 012°24'6 6.1
2016-May-24 00:33N 56°33' E 012°14'1616.0
2016-May-23 23:33N 56°48' E 012°03'1414.0
2016-May-23 22:33N 57°01' E 011°56'8 8.1
2016-May-23 21:34N 57°09' E 011°58'1514.8
2016-May-23 20:33N 56°56' E 012°11'1514.8
2016-May-23 19:33N 56°45' E 011°53'1615.6
2016-May-23 18:33N 56°31' E 011°39'1615.7
2016-May-23 17:33N 56°18' E 011°25'1615.8
2016-May-23 16:32N 56°04' E 011°08'30 4.1
2016-May-23 09:19N 55°46' E 010°27'7 0.7
2016-May-22 22:23N 55°42' E 010°16'6 1.3
2016-May-22 17:33N 55°43' E 010°27'0 0.1
2016-May-22 16:32N 55°43' E 010°27'  
2016-May-19 02:26N 55°29' E 010°32'  
Track history (hours):
 
Tides and Currents Weather Stations Pressure Air Temp Water Temp Dewpoint Dewpoint Depression Visibility Wind Speed Wind Dir Waves Ship Positions

Fure West

Last reported at 2016-May-24 09:33 UTC. Time now 2016-May-24 09:54 UTC.
Position N 57°34' E 011°40'.

Length 144 m; draft 6.6 m.

MMSI: 231775000.

Date/timePositionNaut miles runAvg speedWind from/ knotsBaromVisibWave heightAir tempDewpointWater temp
2016-May-24 09:33N 57°34' E 011°40'1 1.3
2016-May-24 08:33N 57°33' E 011°38'1313.0
2016-May-24 07:33N 57°20' E 011°45'1313.4
2016-May-24 06:33N 57°08' E 011°56'1413.7
2016-May-24 05:33N 56°55' E 012°03'1413.7
2016-May-24 04:33N 56°42' E 012°10'4 4.1
2016-May-24 03:33N 56°45' E 012°04'5 5.3
2016-May-24 02:33N 56°48' E 012°11'1615.7
2016-May-24 01:33N 56°34' E 012°24'6 6.1
2016-May-24 00:33N 56°33' E 012°14'1616.0
2016-May-23 23:33N 56°48' E 012°03'1414.0
2016-May-23 22:33N 57°01' E 011°56'8 8.1
2016-May-23 21:34N 57°09' E 011°58'1514.8
2016-May-23 20:33N 56°56' E 012°11'1514.8
2016-May-23 19:33N 56°45' E 011°53'1615.6
2016-May-23 18:33N 56°31' E 011°39'1615.7
2016-May-23 17:33N 56°18' E 011°25'1615.8
2016-May-23 16:32N 56°04' E 011°08'30 4.1
2016-May-23 09:19N 55°46' E 010°27'7 0.7
2016-May-22 22:23N 55°42' E 010°16'6 1.3
2016-May-22 17:33N 55°43' E 010°27'0 0.1
2016-May-22 16:32N 55°43' E 010°27'  
2016-May-19 02:26N 55°29' E 010°32'  

Dump ship's entire track history